Gillette, WY

8:56 AM MDT on August 01, 2014 (GMT -0600)
Gillette-Campbell County (KGCC) Elev 4364 ft | 44.34 °N, 105.54 °W | Change Station

Current weather conditions updated 3 minutes ago

Clear
Clear
75 °F
Feels Like 75 °F
N
8
Wind Variable Wind from SW

Today is forecast to be nearly the same temperature as yesterday.

Today
High -- | Low -- °F
--% Chance of Precip.
Yesterday
High -- | Low -- °F
Precip. -- in
5:49 AM 8:27 PM
Waxing Crescent, 27% visible
Pressure 30.05 in
Visibility 10.0 miles
Clouds Clear
Dew Point 43 °F
Humidity 32%
Rainfall 0.00 in
Snow Depth Not available.
UV 3 out of 12
Pollen 6.90 out of 12
Air Quality Not available.
Flu Activity Not available.
METAR KGCC 011453Z AUTO 22007KT 10SM CLR 24/06 A3018 RMK AO2 SLP176 T02390061 53012

More Conditions Fewer Conditions

Pressure 30.05 in
Visibility 10.0 miles
Clouds Clear
Dew Point 43 °F
Humidity 32%
Rainfall 0.00 in
Snow Depth Not available.
UV 3 out of 12
Pollen 6.90 out of 12
Air Quality Not available.
Flu Activity Not available.
METAR KGCC 011453Z AUTO 22007KT 10SM CLR 24/06 A3018 RMK AO2 SLP176 T02390061 53012

More Conditions Fewer Conditions

10-Day Weather Forecast

Almanac

Astronomy

Aug. 01, 2014 Rise Set
Actual Time 5:49 AM MDT 8:27 PM MDT
Civil Twilight 5:15 AM MDT 9:01 PM MDT
Nautical Twilight 4:33 AM MDT 9:43 PM MDT
Astronomical Twilight 3:45 AM MDT 10:30 PM MDT
Moon 11:31 AM MDT 10:57 PM MDT
Length of Visible Light 15h 45m
Length of Day
14h 38m
Tomorrow will be 2m 23s shorter.
Waxing Crescent, 27% of the Moon is Illuminated
Today
Waxing Crescent
Aug 3
First Quarter
Aug 10
Full
Aug 17
Last Quarter
Aug 25
New

Today's Extremes

State Highs State Lows

Community

WunderPhotos

Upload Photos

1,739,599 photos uploaded!

Nearby

Snow Depth

Station Depth Elevation
Casper Mountain 0 in 7850 ft
Reno Hill 0 in 8500 ft
Laprele Creek 0 in 8375 ft
Burroughs Creek 1 in 8750 ft
Sand Lake 1 in 10050 ft

Earthquake Activity

City Distance Mag. Time & Date
No recent earthquake activity has been reported nearby.
Minimum magnitude displayed is 2.5.

Coastal Water Temperatures

Place Temperature
No Stations Reporting

Nearby Weather Stations

Station Location Temp. Dew Point Humidity Wind Precip. Elev Updated Type
RAWS ECHETA WY, Gillette, WY 66 °F 40 °F 39% South  at  6 mph 0.00 in / hr 4396 ft 7:51 AM MDT MADIS

Show More Stations Show Fewer Stations